KBEC/BEC METAR and TAF weather

Enter ICAO airport designator
Station Type Date Time Source
KBEC METAR 2022/05/23 14:55 UTC NOAA

KBEC 231455Z AUTO 10010G15KT 10SM VCTS BKN110 14/06 A3020 RMK AO2 LTG DSNT SE AND SW T01380062


Station Type Date Time Source
KBEC Decoded METAR 2022/05/23 14:55 UTC NOAA

Station name not available
May 23, 2022 - 10:55 AM EDT / 2022.05.23 1455 UTC
Wind: from the E (100 degrees) at 12 MPH (10 KT) gusting to 17 MPH (15 KT):0
Visibility: 10 mile(s):0
Sky conditions: mostly cloudy
Weather: thunder in the vicinity; Lightning observed
Temperature: 56.8 F (13.8 C)
Dew Point: 43.2 F (6.2 C)
Relative Humidity: 60%
Pressure (altimeter): 30.2 in. Hg (1022 hPa)
ob: KBEC 231455Z AUTO 10010G15KT 10SM VCTS BKN110 14/06 A3020 RMK AO2 LTG DSNT SE AND SW T01380062
cycle: 15

Station Type Date Time Source
KBEC TAF UTC NOAA

Error!

Example: see airport list